Time;durP1;ratioP1;P1;durP2;ratioP2;P2;SDS_P1;SDS_P2;PMS_P1;PMS_P2;Temp;Humidity;BMP_temperature;BMP_pressure;BME280_temperature;BME280_humidity;BME280_pressure;Samples;Min_cycle;Max_cycle;Signal;HPM_P1;HPM_P2
2021/01/01 00:01:41;;;;;;;26.73;16.77;;;179.70;1894.40;;;;;;5068934;28;20025;-76
2021/01/01 00:04:08;;;;;;;26.92;16.52;;;179.70;1894.40;;;;;;5054056;28;20048;-75
2021/01/01 00:06:37;;;;;;;28.88;16.80;;;179.70;1894.40;;;;;;5054394;28;20112;-75
2021/01/01 00:09:07;;;;;;;28.67;17.20;;;179.60;1894.40;;;;;;5054092;28;20441;-74
2021/01/01 00:11:34;;;;;;;25.08;17.30;;;179.60;1894.40;;;;;;5053745;28;20025;-76
2021/01/01 00:14:00;;;;;;;25.52;16.75;;;179.60;1894.40;;;;;;5068733;28;20047;-75
2021/01/01 00:16:26;;;;;;;30.52;18.10;;;179.50;1894.40;;;;;;5054074;28;20085;-75
2021/01/01 00:18:51;;;;;;;29.27;17.75;;;179.50;1894.40;;;;;;5054284;28;20403;-74
2021/01/01 00:21:17;;;;;;;32.63;17.83;;;179.50;1894.40;;;;;;5069168;28;20474;-74
2021/01/01 00:23:43;;;;;;;24.85;15.90;;;179.50;1894.40;;;;;;5053843;28;20037;-75
2021/01/01 00:26:14;;;;;;;26.08;15.70;;;179.50;1894.40;;;;;;5053958;28;20033;-75
2021/01/01 00:28:43;;;;;;;30.48;16.50;;;179.40;1894.40;;;;;;5053717;28;20053;-73
2021/01/01 00:31:17;;;;;;;27.00;16.15;;;179.40;1894.40;;;;;;5051702;28;20043;-74
2021/01/01 00:33:43;;;;;;;29.55;17.38;;;179.30;1894.40;;;;;;5069182;28;20034;-74
2021/01/01 00:36:09;;;;;;;29.33;15.60;;;179.30;1894.40;;;;;;5053854;28;20079;-73
2021/01/01 00:38:36;;;;;;;26.45;15.27;;;179.30;1868.80;;;;;;5053546;28;20475;-74
2021/01/01 00:41:03;;;;;;;29.27;16.13;;;179.30;1868.80;;;;;;5053823;28;20021;-75
2021/01/01 00:43:28;;;;;;;30.77;15.93;;;179.30;1868.80;;;;;;5053426;28;20036;-75
2021/01/01 00:45:54;;;;;;;27.42;14.90;;;179.30;1868.80;;;;;;5052529;28;20033;-76
2021/01/01 00:48:21;;;;;;;22.90;14.60;;;179.20;1868.80;;;;;;5052460;28;20029;-75
2021/01/01 00:50:47;;;;;;;24.00;13.23;;;179.30;1868.80;;;;;;5056314;28;20086;-74
2021/01/01 00:53:13;;;;;;;22.58;12.98;;;179.20;1894.40;;;;;;5057889;28;20021;-74
2021/01/01 00:55:38;;;;;;;23.67;12.05;;;154.50;1868.80;;;;;;5057624;28;20469;-74
2021/01/01 00:58:04;;;;;;;25.13;12.77;;;154.50;1894.40;;;;;;5057322;28;20044;-74
2021/01/01 01:00:30;;;;;;;22.50;13.00;;;154.50;1894.40;;;;;;5057201;28;20025;-74
2021/01/01 01:02:55;;;;;;;21.67;13.13;;;154.50;1894.40;;;;;;5057377;28;20033;-75
2021/01/01 01:05:21;;;;;;;19.40;12.82;;;154.40;1894.40;;;;;;5057223;28;20499;-75
2021/01/01 01:07:47;;;;;;;20.75;12.88;;;154.40;1894.40;;;;;;5057338;28;20037;-74
2021/01/01 01:10:13;;;;;;;17.58;12.18;;;154.40;1868.80;;;;;;5057381;28;20037;-74
2021/01/01 01:12:40;;;;;;;19.73;12.18;;;154.30;1868.80;;;;;;5057108;28;20494;-74
2021/01/01 01:15:07;;;;;;;17.25;11.85;;;154.30;1868.80;;;;;;5057266;28;20028;-75
2021/01/01 01:17:33;;;;;;;19.10;12.25;;;154.30;1868.80;;;;;;5057347;28;20017;-75
2021/01/01 01:19:58;;;;;;;19.17;12.40;;;154.30;1868.80;;;;;;5057323;28;20036;-74
2021/01/01 01:22:24;;;;;;;27.00;14.75;;;154.30;1868.80;;;;;;5056398;28;20017;-74
2021/01/01 01:24:50;;;;;;;28.80;14.27;;;154.30;1920.00;;;;;;5057141;28;20028;-72
2021/01/01 01:27:15;;;;;;;22.27;13.10;;;154.20;1920.00;;;;;;5056813;28;20467;-74
2021/01/01 01:29:41;;;;;;;46.30;28.45;;;154.20;1920.00;;;;;;5056515;28;20037;-73
2021/01/01 01:32:07;;;;;;;45.10;27.55;;;154.20;1894.40;;;;;;5057087;28;20064;-75
2021/01/01 01:34:33;;;;;;;35.17;24.83;;;154.20;1894.40;;;;;;5056692;28;20410;-74
2021/01/01 01:36:58;;;;;;;29.73;19.77;;;154.20;1894.40;;;;;;5055043;28;20394;-74
2021/01/01 01:39:24;;;;;;;28.27;20.48;;;154.20;1894.40;;;;;;5056663;28;20363;-74
2021/01/01 01:41:50;;;;;;;38.85;23.63;;;154.20;1894.40;;;;;;5056841;28;20032;-74
2021/01/01 01:44:15;;;;;;;164.30;71.45;;;154.10;1920.00;;;;;;5056060;28;20079;-75
2021/01/01 01:46:43;;;;;;;190.52;88.82;;;154.10;1920.00;;;;;;5056299;28;20096;-74
2021/01/01 01:49:13;;;;;;;207.98;105.22;;;154.10;1894.40;;;;;;5056264;28;20033;-74
2021/01/01 01:51:41;;;;;;;143.10;77.20;;;154.10;1920.00;;;;;;5056523;28;20025;-75
2021/01/01 01:54:08;;;;;;;76.20;41.38;;;154.10;1894.40;;;;;;5056231;28;20406;-74
2021/01/01 01:56:34;;;;;;;48.80;28.98;;;154.10;1894.40;;;;;;5056411;28;20046;-75
2021/01/01 01:59:01;;;;;;;39.05;22.40;;;154.10;1894.40;;;;;;5056569;28;20060;-74
2021/01/01 02:01:27;;;;;;;31.48;19.60;;;154.10;1920.00;;;;;;5055280;28;20463;-74
2021/01/01 02:03:54;;;;;;;29.52;19.90;;;154.00;1894.40;;;;;;5056159;28;20035;-75
2021/01/01 02:06:21;;;;;;;25.83;16.23;;;154.00;1920.00;;;;;;5055964;28;20494;-75
2021/01/01 02:08:50;;;;;;;25.55;15.48;;;154.10;1920.00;;;;;;5056167;28;20028;-75
2021/01/01 02:11:16;;;;;;;103.32;67.97;;;154.00;1894.40;;;;;;5056016;28;20033;-75
2021/01/01 02:13:46;;;;;;;100.30;69.88;;;154.00;1894.40;;;;;;5056168;28;20074;-73
2021/01/01 02:16:14;;;;;;;88.63;58.72;;;154.00;1920.00;;;;;;5056529;28;20021;-73
2021/01/01 02:18:41;;;;;;;54.08;38.10;;;154.00;1920.00;;;;;;5063505;28;20028;-83
2021/01/01 02:21:08;;;;;;;49.78;31.95;;;154.00;1920.00;;;;;;5055835;28;20033;-73
2021/01/01 02:23:35;;;;;;;37.42;26.60;;;154.00;1920.00;;;;;;5054202;28;20029;-74
2021/01/01 02:26:01;;;;;;;27.30;18.70;;;154.00;1920.00;;;;;;5055777;28;20094;-74
2021/01/01 02:28:26;;;;;;;24.25;18.08;;;154.00;1920.00;;;;;;5057046;28;20467;-74
2021/01/01 02:30:52;;;;;;;25.90;16.67;;;153.90;1920.00;;;;;;5062605;28;20384;-73
2021/01/01 02:33:18;;;;;;;24.23;15.63;;;154.00;1920.00;;;;;;5056083;28;20017;-73
2021/01/01 02:35:44;;;;;;;23.20;15.00;;;154.00;1920.00;;;;;;5053912;28;20546;-75
2021/01/01 02:38:10;;;;;;;24.90;15.38;;;153.90;1920.00;;;;;;5053238;28;20017;-75
2021/01/01 02:40:35;;;;;;;29.70;17.13;;;153.90;1920.00;;;;;;5055122;28;20025;-75
2021/01/01 02:43:01;;;;;;;26.30;18.90;;;153.90;1920.00;;;;;;5055601;28;20029;-75
2021/01/01 02:45:27;;;;;;;27.58;17.65;;;153.90;1920.00;;;;;;5054398;28;20025;-74
2021/01/01 02:47:54;;;;;;;24.40;16.17;;;153.90;1945.60;;;;;;5055534;28;20021;-74
2021/01/01 02:50:19;;;;;;;27.35;16.65;;;154.00;1920.00;;;;;;5054502;28;20421;-73
2021/01/01 02:52:45;;;;;;;27.13;15.25;;;154.00;1920.00;;;;;;5053738;28;20029;-73
2021/01/01 02:55:12;;;;;;;21.48;13.73;;;154.00;1920.00;;;;;;5055342;28;20032;-74
2021/01/01 02:57:38;;;;;;;23.67;13.38;;;153.90;1920.00;;;;;;5055351;28;20025;-74
2021/01/01 03:00:05;;;;;;;22.33;14.07;;;154.00;1920.00;;;;;;5055628;28;20019;-74
2021/01/01 03:02:31;;;;;;;32.95;16.05;;;153.90;1920.00;;;;;;5055295;28;20020;-74
2021/01/01 03:04:57;;;;;;;37.13;21.02;;;154.00;1920.00;;;;;;5054742;28;20049;-74
2021/01/01 03:07:23;;;;;;;43.28;25.98;;;154.00;1894.40;;;;;;5055202;28;20079;-74
2021/01/01 03:09:48;;;;;;;40.33;25.02;;;154.00;1894.40;;;;;;5053670;28;20556;-73
2021/01/01 03:12:14;;;;;;;44.67;26.13;;;154.00;1894.40;;;;;;5054110;28;20049;-74
2021/01/01 03:14:40;;;;;;;44.75;25.90;;;154.00;1894.40;;;;;;5055023;28;20378;-73
2021/01/01 03:17:05;;;;;;;59.10;32.17;;;154.10;1894.40;;;;;;5054629;28;20032;-74
2021/01/01 03:19:31;;;;;;;75.55;46.25;;;154.10;1894.40;;;;;;5055017;28;20099;-73
2021/01/01 03:21:57;;;;;;;66.53;44.83;;;154.10;1894.40;;;;;;5054791;28;20478;-74
2021/01/01 03:24:22;;;;;;;73.72;45.17;;;154.10;1894.40;;;;;;5054821;28;20033;-74
2021/01/01 03:26:48;;;;;;;60.03;39.58;;;154.00;1894.40;;;;;;5054819;28;20025;-74
2021/01/01 03:29:14;;;;;;;52.17;34.25;;;154.00;1894.40;;;;;;5054516;28;20055;-74
2021/01/01 03:31:39;;;;;;;47.00;29.65;;;154.00;1894.40;;;;;;5053233;28;20078;-74
2021/01/01 03:34:05;;;;;;;44.50;28.40;;;154.00;1894.40;;;;;;5054902;28;20430;-74
2021/01/01 03:36:31;;;;;;;60.55;41.33;;;154.00;1894.40;;;;;;5054473;28;20025;-75
2021/01/01 03:38:56;;;;;;;65.43;41.28;;;154.00;1894.40;;;;;;5053195;28;20167;-74
2021/01/01 03:41:22;;;;;;;56.22;36.45;;;154.00;1894.40;;;;;;5054479;28;20025;-74
2021/01/01 03:43:48;;;;;;;49.38;28.80;;;154.00;1894.40;;;;;;5054479;28;20512;-75
2021/01/01 03:46:14;;;;;;;48.05;26.73;;;154.00;1894.40;;;;;;5054228;28;20355;-74
2021/01/01 03:48:40;;;;;;;31.70;22.58;;;154.00;1894.40;;;;;;5054173;28;20485;-74
2021/01/01 03:51:05;;;;;;;31.85;22.02;;;153.90;1894.40;;;;;;5053612;28;20032;-74
2021/01/01 03:53:31;;;;;;;24.17;18.65;;;153.90;1894.40;;;;;;5054160;28;20075;-74
2021/01/01 03:55:57;;;;;;;27.95;16.13;;;153.90;1894.40;;;;;;5054100;28;20020;-74
2021/01/01 03:58:23;;;;;;;23.80;15.10;;;153.90;1894.40;;;;;;5054351;28;20025;-74
2021/01/01 04:00:48;;;;;;;21.85;15.05;;;153.90;1920.00;;;;;;5054145;28;20021;-74
2021/01/01 04:03:14;;;;;;;20.20;12.25;;;153.90;1894.40;;;;;;5054163;28;20067;-74
2021/01/01 04:05:40;;;;;;;18.25;11.98;;;153.80;1894.40;;;;;;5053915;28;20557;-74
2021/01/01 04:08:06;;;;;;;17.08;12.82;;;153.80;1894.40;;;;;;5053844;28;20035;-74
2021/01/01 04:10:32;;;;;;;21.35;14.05;;;153.80;1894.40;;;;;;5053896;28;20093;-74
2021/01/01 04:12:57;;;;;;;21.98;13.00;;;153.80;1894.40;;;;;;5053914;28;20021;-74
2021/01/01 04:15:23;;;;;;;16.60;12.45;;;153.90;1894.40;;;;;;5053639;28;20036;-74
2021/01/01 04:17:49;;;;;;;27.20;12.68;;;153.80;1894.40;;;;;;5053929;28;20158;-75
2021/01/01 04:20:15;;;;;;;16.67;11.40;;;153.80;1894.40;;;;;;5053212;28;20479;-76
2021/01/01 04:22:40;;;;;;;18.40;10.93;;;153.80;1894.40;;;;;;5053933;28;20103;-73
2021/01/01 04:25:07;;;;;;;22.40;11.10;;;153.70;1894.40;;;;;;5053330;28;20079;-74
2021/01/01 04:27:32;;;;;;;19.25;11.38;;;153.70;1894.40;;;;;;5053254;28;20100;-74
2021/01/01 04:29:58;;;;;;;22.63;12.65;;;153.70;1920.00;;;;;;5053665;28;20049;-75
2021/01/01 04:32:24;;;;;;;26.70;13.20;;;153.70;1920.00;;;;;;5053871;28;20131;-74
2021/01/01 04:34:49;;;;;;;27.65;14.07;;;153.60;1920.00;;;;;;5053747;28;20079;-74
2021/01/01 04:37:15;;;;;;;34.55;14.85;;;153.60;1920.00;;;;;;5053826;28;20079;-74
2021/01/01 04:39:41;;;;;;;32.25;15.23;;;153.60;1920.00;;;;;;5053734;28;20025;-75
2021/01/01 04:42:07;;;;;;;38.22;16.25;;;153.60;1920.00;;;;;;5053549;28;20021;-74
2021/01/01 04:44:33;;;;;;;43.28;19.25;;;153.60;1920.00;;;;;;5053536;28;20120;-75
2021/01/01 04:47:03;;;;;;;36.30;17.73;;;153.60;1920.00;;;;;;5053638;28;20506;-74
2021/01/01 04:49:29;;;;;;;32.67;15.13;;;153.60;1920.00;;;;;;5053542;28;20075;-74
2021/01/01 04:51:56;;;;;;;34.00;15.05;;;153.60;1920.00;;;;;;5052387;28;20025;-76
2021/01/01 04:54:28;;;;;;;25.33;13.15;;;153.60;1920.00;;;;;;5052401;28;20033;-75
2021/01/01 04:56:54;;;;;;;20.52;12.70;;;153.60;1971.20;;;;;;5051922;28;20057;-75
2021/01/01 04:59:19;;;;;;;20.48;11.82;;;153.60;1945.60;;;;;;5053151;28;20048;-75
2021/01/01 05:01:46;;;;;;;22.08;12.38;;;153.60;1920.00;;;;;;5053705;28;20029;-75
2021/01/01 05:04:12;;;;;;;21.30;11.60;;;153.60;1920.00;;;;;;5051824;28;20467;-75
2021/01/01 05:06:42;;;;;;;20.67;11.68;;;153.60;1920.00;;;;;;5053509;28;20036;-76
2021/01/01 05:09:10;;;;;;;22.33;13.10;;;153.60;1920.00;;;;;;5053502;28;20482;-73
2021/01/01 05:11:36;;;;;;;20.30;11.85;;;153.60;1920.00;;;;;;5052601;28;20379;-78
2021/01/01 05:14:04;;;;;;;22.13;11.25;;;153.60;1920.00;;;;;;5053544;28;20023;-77
2021/01/01 05:16:30;;;;;;;25.80;11.40;;;153.60;1920.00;;;;;;5053452;28;20366;-75
2021/01/01 05:18:57;;;;;;;18.98;11.38;;;153.60;1920.00;;;;;;5053343;28;20112;-75
2021/01/01 05:21:24;;;;;;;21.60;11.30;;;153.60;1920.00;;;;;;5053243;28;20057;-75
2021/01/01 05:23:51;;;;;;;22.77;11.13;;;128.90;1920.00;;;;;;5053311;28;20028;-74
2021/01/01 05:26:18;;;;;;;15.73;10.60;;;128.90;1920.00;;;;;;5053528;28;20383;-74
2021/01/01 05:28:49;;;;;;;17.58;10.70;;;128.90;1920.00;;;;;;5053166;28;20021;-74
2021/01/01 05:31:23;;;;;;;17.35;11.10;;;128.90;1920.00;;;;;;5053035;28;20063;-75
2021/01/01 05:33:59;;;;;;;17.30;10.77;;;128.90;1920.00;;;;;;5053281;28;20036;-75
2021/01/01 05:36:30;;;;;;;17.50;11.27;;;128.90;1920.00;;;;;;5055542;28;21250;-76
2021/01/01 05:38:56;;;;;;;16.92;11.38;;;128.80;1920.00;;;;;;5056934;28;20021;-75
2021/01/01 05:41:34;;;;;;;24.17;14.93;;;128.90;1920.00;;;;;;5057168;28;20104;-76
2021/01/01 05:44:13;;;;;;;22.10;15.23;;;128.80;1920.00;;;;;;5056873;28;20377;-75
2021/01/01 05:46:55;;;;;;;24.88;14.80;;;128.80;1920.00;;;;;;5056812;28;20021;-75
2021/01/01 05:49:21;;;;;;;19.00;12.95;;;128.90;1920.00;;;;;;5054874;28;20041;-73
2021/01/01 05:52:04;;;;;;;20.20;12.77;;;128.90;1920.00;;;;;;5056696;28;20037;-76
2021/01/01 05:54:31;;;;;;;26.45;14.75;;;128.80;1920.00;;;;;;5056917;28;20095;-76
2021/01/01 05:56:57;;;;;;;27.38;15.63;;;128.80;1894.40;;;;;;5055227;28;20501;-75
2021/01/01 05:59:26;;;;;;;22.23;13.85;;;128.80;1920.00;;;;;;5056405;28;20033;-76
2021/01/01 06:01:56;;;;;;;22.60;14.18;;;128.80;1894.40;;;;;;5056364;28;20017;-75
2021/01/01 06:04:27;;;;;;;18.35;13.05;;;128.70;1894.40;;;;;;5056411;28;20033;-75
2021/01/01 06:06:53;;;;;;;22.75;12.80;;;128.70;1894.40;;;;;;5056167;28;20108;-75
2021/01/01 06:09:22;;;;;;;18.27;11.90;;;128.70;1894.40;;;;;;5056163;28;20087;-76
2021/01/01 06:12:08;;;;;;;19.58;11.43;;;128.70;1894.40;;;;;;5056381;28;20386;-75
2021/01/01 06:14:39;;;;;;;18.45;11.57;;;128.70;1894.40;;;;;;5055970;28;20074;-75
2021/01/01 06:17:11;;;;;;;16.35;11.07;;;128.70;1894.40;;;;;;5056240;28;20060;-76
2021/01/01 06:19:47;;;;;;;16.65;10.88;;;128.60;1894.40;;;;;;5056283;28;20381;-76
2021/01/01 06:22:17;;;;;;;19.58;13.60;;;128.60;1894.40;;;;;;5054889;28;20025;-75
2021/01/01 06:24:45;;;;;;;18.90;12.60;;;128.60;1894.40;;;;;;5056081;28;20025;-75
2021/01/01 06:27:12;;;;;;;29.25;11.93;;;128.60;1894.40;;;;;;5056293;28;20052;-76
2021/01/01 06:29:44;;;;;;;22.20;12.60;;;128.50;1894.40;;;;;;5056163;28;20043;-75
2021/01/01 06:32:11;;;;;;;29.63;15.18;;;128.50;1894.40;;;;;;5055840;28;20371;-76
2021/01/01 06:34:37;;;;;;;35.15;17.05;;;128.40;1920.00;;;;;;5055996;28;20025;-75
2021/01/01 06:37:03;;;;;;;30.02;16.15;;;128.30;1945.60;;;;;;5055869;28;20455;-75
2021/01/01 06:39:43;;;;;;;28.73;15.63;;;128.40;1945.60;;;;;;5055777;28;20382;-75
2021/01/01 06:42:10;;;;;;;24.88;14.73;;;128.40;1945.60;;;;;;5055371;28;20025;-75
2021/01/01 06:44:38;;;;;;;19.38;12.50;;;128.40;1945.60;;;;;;5055840;28;20111;-75
2021/01/01 06:47:07;;;;;;;20.50;12.95;;;128.40;1945.60;;;;;;5055163;28;20071;-75
2021/01/01 06:49:35;;;;;;;23.33;13.38;;;128.40;1945.60;;;;;;5055725;28;20108;-75
2021/01/01 06:52:17;;;;;;;25.55;14.93;;;128.40;1945.60;;;;;;5055603;28;20032;-75
2021/01/01 06:54:53;;;;;;;31.25;16.83;;;128.40;1945.60;;;;;;5055821;28;20086;-75
2021/01/01 06:57:22;;;;;;;47.38;23.05;;;128.50;1945.60;;;;;;5055550;28;20025;-75
2021/01/01 06:59:47;;;;;;;43.83;20.17;;;128.50;1945.60;;;;;;5054072;28;20036;-75
2021/01/01 07:02:26;;;;;;;38.67;17.90;;;128.50;1945.60;;;;;;5055117;28;20112;-75
2021/01/01 07:04:53;;;;;;;31.05;16.17;;;128.50;1945.60;;;;;;5054884;28;20045;-75
2021/01/01 07:07:40;;;;;;;28.63;15.48;;;128.50;1945.60;;;;;;5055218;28;20021;-75
2021/01/01 07:10:12;;;;;;;28.67;15.63;;;128.50;1971.20;;;;;;5054861;28;20037;-76
2021/01/01 07:12:38;;;;;;;27.92;15.23;;;128.50;1971.20;;;;;;5054959;28;20374;-74
2021/01/01 07:15:24;;;;;;;28.00;16.00;;;128.50;1971.20;;;;;;5053782;28;20021;-76
2021/01/01 07:17:50;;;;;;;30.27;14.93;;;128.50;1971.20;;;;;;5054746;28;20071;-75
2021/01/01 07:20:15;;;;;;;29.63;14.40;;;128.60;1971.20;;;;;;5055063;28;20418;-75
2021/01/01 07:22:41;;;;;;;24.00;13.77;;;128.60;1971.20;;;;;;5054938;28;20360;-74
2021/01/01 07:25:07;;;;;;;23.35;13.68;;;128.60;1971.20;;;;;;5053591;28;20029;-76
2021/01/01 07:27:35;;;;;;;17.33;12.07;;;128.60;1971.20;;;;;;5054557;28;20024;-76
2021/01/01 07:30:12;;;;;;;20.02;11.98;;;128.60;1971.20;;;;;;5052722;28;20033;-74
2021/01/01 07:32:38;;;;;;;19.38;12.10;;;128.70;1971.20;;;;;;5056425;28;20409;-75
2021/01/01 07:35:09;;;;;;;21.13;13.43;;;128.70;1971.20;;;;;;5052903;28;20398;-75
2021/01/01 07:37:36;;;;;;;23.25;13.40;;;128.70;1971.20;;;;;;5054637;28;20025;-74
2021/01/01 07:40:02;;;;;;;34.05;13.48;;;128.70;1971.20;;;;;;5054422;28;20029;-75
2021/01/01 07:42:28;;;;;;;36.00;14.30;;;128.90;2099.20;;;;;;5054036;28;20063;-81
2021/01/01 07:44:55;;;;;;;35.53;13.55;;;153.70;2048.00;;;;;;5051962;28;20490;-75
2021/01/01 07:47:21;;;;;;;24.27;13.85;;;153.90;2022.40;;;;;;5054439;28;20116;-75
2021/01/01 07:49:46;;;;;;;24.08;14.48;;;154.10;1996.80;;;;;;5054293;28;20128;-73
2021/01/01 07:52:15;;;;;;;23.38;15.45;;;154.20;1971.20;;;;;;5054265;28;20025;-73
2021/01/01 07:54:48;;;;;;;25.92;15.73;;;154.20;1945.60;;;;;;5054469;28;20416;-73
2021/01/01 07:57:20;;;;;;;32.17;17.05;;;154.30;1945.60;;;;;;5053540;28;20421;-74
2021/01/01 07:59:46;;;;;;;44.45;17.92;;;154.30;1920.00;;;;;;5053198;28;20108;-73
2021/01/01 08:02:12;;;;;;;65.60;19.52;;;154.40;2073.60;;;;;;5052879;28;20108;-76
2021/01/01 08:04:38;;;;;;;41.17;20.13;;;154.40;1996.80;;;;;;5053973;28;20056;-76
2021/01/01 08:07:03;;;;;;;38.15;20.20;;;154.30;1996.80;;;;;;5054061;28;20017;-75
2021/01/01 08:09:29;;;;;;;44.15;21.25;;;154.20;1996.80;;;;;;5053949;28;20067;-75
2021/01/01 08:12:04;;;;;;;34.78;20.67;;;154.20;1996.80;;;;;;5053897;28;20375;-73
2021/01/01 08:14:30;;;;;;;38.05;24.15;;;154.20;1996.80;;;;;;5054062;28;20040;-75
2021/01/01 08:16:56;;;;;;;54.10;32.72;;;154.20;1996.80;;;;;;5053797;28;20029;-75
2021/01/01 08:19:22;;;;;;;50.40;32.67;;;154.20;1996.80;;;;;;5054042;28;20100;-74
2021/01/01 08:22:02;;;;;;;43.10;29.23;;;154.20;2022.40;;;;;;5053742;28;20028;-74
2021/01/01 08:24:31;;;;;;;38.20;26.75;;;154.20;2022.40;;;;;;5053944;28;20348;-73
2021/01/01 08:26:57;;;;;;;40.35;26.70;;;154.20;2048.00;;;;;;5053005;28;20033;-74
2021/01/01 08:29:23;;;;;;;38.13;24.23;;;154.30;2048.00;;;;;;5052964;28;20043;-74
2021/01/01 08:31:49;;;;;;;37.38;22.63;;;154.30;2048.00;;;;;;5053834;28;20402;-73
2021/01/01 08:34:14;;;;;;;33.67;22.60;;;154.40;2048.00;;;;;;5053418;28;20029;-74
2021/01/01 08:36:40;;;;;;;29.88;22.45;;;179.20;2048.00;;;;;;5053579;28;20416;-74
2021/01/01 08:39:07;;;;;;;30.25;21.67;;;179.30;2073.60;;;;;;5053721;28;20467;-74
2021/01/01 08:41:42;;;;;;;38.15;24.83;;;179.40;2048.00;;;;;;5053522;28;20029;-74
2021/01/01 08:44:08;;;;;;;;;;;179.60;2048.00;;;;;;5053900;28;20055;-74
2021/01/01 08:46:34;;;;;;;39.40;24.50;;;179.70;2073.60;;;;;;5053718;28;19911;-74
2021/01/01 08:49:17;;;;;;;35.95;24.80;;;179.80;2073.60;;;;;;5051582;28;20116;-73
2021/01/01 08:51:44;;;;;;;39.45;25.92;;;180.00;2073.60;;;;;;5053624;28;20530;-74
2021/01/01 08:54:24;;;;;;;34.97;24.23;;;180.10;2073.60;;;;;;5053168;28;20032;-73
2021/01/01 08:57:00;;;;;;;37.05;25.65;;;204.80;2073.60;;;;;;5053396;28;20356;-74
2021/01/01 08:59:27;;;;;;;38.40;26.02;;;205.00;2073.60;;;;;;5053113;28;20108;-73
2021/01/01 09:01:54;;;;;;;35.70;25.17;;;205.10;2099.20;;;;;;5053404;28;20029;-74
2021/01/01 09:04:27;;;;;;;38.50;24.80;;;205.20;2073.60;;;;;;5053206;28;20049;-74
2021/01/01 09:06:58;;;;;;;35.80;25.23;;;205.40;2073.60;;;;;;5053314;28;20114;-74
2021/01/01 09:09:29;;;;;;;39.15;26.98;;;205.50;2048.00;;;;;;5052810;28;20094;-74
2021/01/01 09:12:13;;;;;;;38.20;25.88;;;205.60;2048.00;;;;;;5056203;28;20029;-74
2021/01/01 09:14:55;;;;;;;40.40;27.57;;;205.70;2048.00;;;;;;5056980;28;20374;-74
2021/01/01 09:17:25;;;;;;;41.22;28.13;;;230.40;2048.00;;;;;;5057033;28;20430;-74
2021/01/01 09:20:01;;;;;;;36.95;25.45;;;230.50;2048.00;;;;;;5055943;28;20025;-74
2021/01/01 09:22:31;;;;;;;37.83;25.52;;;230.60;2048.00;;;;;;5057116;28;20406;-75
2021/01/01 09:25:26;;;;;;;38.45;24.95;;;230.60;2048.00;;;;;;5057030;28;20021;-74
2021/01/01 09:27:53;;;;;;;35.33;24.42;;;230.70;2022.40;;;;;;5055690;28;20032;-74
2021/01/01 09:30:30;;;;;;;34.83;23.48;;;230.70;1996.80;;;;;;5056561;28;20041;-74
2021/01/01 09:33:02;;;;;;;36.22;24.73;;;230.80;1971.20;;;;;;5056852;28;20024;-74
2021/01/01 09:35:30;;;;;;;34.90;22.38;;;230.80;2022.40;;;;;;5055443;28;20028;-75
2021/01/01 09:38:03;;;;;;;32.90;22.17;;;230.90;1996.80;;;;;;5056462;28;20037;-74
2021/01/01 09:40:31;;;;;;;38.65;23.90;;;230.90;1868.80;;;;;;5056684;28;20025;-74
2021/01/01 09:43:02;;;;;;;31.35;22.17;;;230.90;1868.80;;;;;;5056766;28;20047;-74
2021/01/01 09:45:28;;;;;;;32.38;21.98;;;230.80;1843.20;;;;;;5056655;28;20025;-75
2021/01/01 09:47:53;;;;;;;35.40;22.90;;;230.90;1843.20;;;;;;5056194;28;20029;-75
2021/01/01 09:50:19;;;;;;;33.38;21.67;;;230.90;1843.20;;;;;;5056301;28;20395;-75
2021/01/01 09:52:45;;;;;;;30.35;21.83;;;231.00;1843.20;;;;;;5055168;28;20029;-75
2021/01/01 09:55:11;;;;;;;34.00;22.52;;;231.00;1843.20;;;;;;5056645;28;20059;-74
2021/01/01 09:57:40;;;;;;;30.75;21.35;;;231.00;1843.20;;;;;;5056354;28;20036;-75
2021/01/01 10:00:16;;;;;;;32.97;22.17;;;231.10;1843.20;;;;;;5056544;28;20036;-76
2021/01/01 10:02:43;;;;;;;35.08;22.05;;;231.20;1843.20;;;;;;5055368;28;20052;-74
2021/01/01 10:05:10;;;;;;;39.58;24.35;;;231.30;1817.60;;;;;;5056144;28;20479;-76
2021/01/01 10:07:36;;;;;;;44.80;24.98;;;231.30;1817.60;;;;;;5055657;28;20119;-74
2021/01/01 10:10:04;;;;;;;35.15;22.80;;;256.00;1868.80;;;;;;5055562;28;20087;-75
2021/01/01 10:12:30;;;;;;;32.33;21.63;;;256.20;1920.00;;;;;;5056367;28;20031;-75
2021/01/01 10:14:58;;;;;;;31.05;21.77;;;256.20;1843.20;;;;;;5056319;28;20389;-75
2021/01/01 10:17:24;;;;;;;41.88;24.80;;;256.10;1817.60;;;;;;5056039;28;20091;-75
2021/01/01 10:19:50;;;;;;;35.85;23.08;;;256.10;1817.60;;;;;;5054886;28;20359;-75
2021/01/01 10:22:16;;;;;;;35.40;24.48;;;256.00;1843.20;;;;;;5055131;28;20035;-74
2021/01/01 10:24:46;;;;;;;43.75;27.73;;;256.00;1817.60;;;;;;5056115;28;20378;-76
2021/01/01 10:27:12;;;;;;;38.60;25.23;;;256.00;1843.20;;;;;;5054738;28;20094;-76
2021/01/01 10:29:38;;;;;;;36.47;23.55;;;256.00;1868.80;;;;;;5055859;28;20437;-76
2021/01/01 10:32:08;;;;;;;52.47;30.52;;;256.00;1843.20;;;;;;5055982;28;20025;-75
2021/01/01 10:34:34;;;;;;;52.90;28.70;;;256.00;1843.20;;;;;;5056065;28;20033;-76
2021/01/01 10:37:00;;;;;;;42.75;26.00;;;256.00;1843.20;;;;;;5055490;28;20043;-75
2021/01/01 10:39:27;;;;;;;42.55;25.35;;;256.10;1868.80;;;;;;5055855;28;20459;-76
2021/01/01 10:41:53;;;;;;;34.15;23.00;;;256.10;1945.60;;;;;;5055859;28;20052;-76
2021/01/01 10:44:19;;;;;;;36.63;23.05;;;256.20;1868.80;;;;;;5055537;28;20471;-76
2021/01/01 10:46:53;;;;;;;33.92;22.58;;;256.30;1868.80;;;;;;5055748;28;20485;-75
2021/01/01 10:49:24;;;;;;;34.28;22.25;;;256.40;1894.40;;;;;;5055809;28;20044;-77
2021/01/01 10:51:49;;;;;;;32.03;22.35;;;256.40;1843.20;;;;;;5054336;28;20029;-75
2021/01/01 10:54:15;;;;;;;33.08;21.85;;;256.50;1868.80;;;;;;5055660;28;20375;-75
2021/01/01 10:56:44;;;;;;;31.33;21.58;;;256.50;1843.20;;;;;;5054194;28;20127;-75
2021/01/01 10:59:09;;;;;;;29.08;20.17;;;256.70;1843.20;;;;;;5055630;28;20498;-76
2021/01/01 11:01:35;;;;;;;34.45;23.58;;;256.70;1868.80;;;;;;5054269;28;20032;-77
2021/01/01 11:04:01;;;;;;;42.05;25.48;;;256.80;1843.20;;;;;;5055210;28;20390;-77
2021/01/01 11:06:27;;;;;;;41.30;26.40;;;281.60;1868.80;;;;;;5055361;28;20463;-76
2021/01/01 11:08:52;;;;;;;42.33;27.42;;;281.70;1868.80;;;;;;5055533;28;20033;-75
2021/01/01 11:11:23;;;;;;;35.35;24.63;;;281.80;1843.20;;;;;;5055781;28;20470;-76
2021/01/01 11:13:57;;;;;;;33.50;21.67;;;281.80;1843.20;;;;;;5055217;28;20024;-75
2021/01/01 12:24:53;;;;;;;15.50;10.30;;;307.50;1740.80;;;;;;5053971;28;20033;-74
2021/01/01 12:27:24;;;;;;;19.60;10.32;;;307.70;1740.80;;;;;;5069292;28;20095;-73
2021/01/01 12:29:51;;;;;;;25.48;11.43;;;307.70;1740.80;;;;;;5053365;28;20483;-72
2021/01/01 12:32:18;;;;;;;14.80;9.40;;;307.90;1817.60;;;;;;5053516;28;20025;-73
2021/01/01 12:34:44;;;;;;;16.15;9.35;;;307.80;1740.80;;;;;;5053478;28;20082;-74
2021/01/01 12:37:10;;;;;;;18.98;12.00;;;307.70;1715.20;;;;;;5053191;28;20025;-73
2021/01/01 12:39:37;;;;;;;19.45;11.85;;;307.70;1715.20;;;;;;5061524;28;20124;-73
2021/01/01 12:42:04;;;;;;;17.42;11.55;;;307.60;1715.20;;;;;;5052042;28;20086;-73
2021/01/01 12:44:30;;;;;;;16.63;10.77;;;307.50;1715.20;;;;;;5050827;28;20162;-73
2021/01/01 12:46:57;;;;;;;18.20;11.25;;;307.50;1715.20;;;;;;5068423;28;20506;-72
2021/01/01 12:49:23;;;;;;;16.38;10.40;;;307.40;1715.20;;;;;;5053425;28;20452;-73
2021/01/01 12:51:48;;;;;;;16.40;9.90;;;307.40;1715.20;;;;;;5052688;28;20029;-72
2021/01/01 12:54:14;;;;;;;13.55;9.50;;;307.40;1715.20;;;;;;5051063;28;20028;-73
2021/01/01 12:56:40;;;;;;;14.63;9.77;;;307.40;1715.20;;;;;;5053097;28;20029;-72
2021/01/01 12:59:06;;;;;;;27.30;12.75;;;307.30;1715.20;;;;;;5053167;28;20029;-72
2021/01/01 13:01:33;;;;;;;20.95;12.18;;;307.30;1715.20;;;;;;5053042;28;20378;-72
2021/01/01 13:03:59;;;;;;;18.83;11.95;;;307.30;1715.20;;;;;;5053221;28;20067;-73
2021/01/01 13:06:25;;;;;;;15.77;11.20;;;307.30;1715.20;;;;;;5053590;28;20021;-73
2021/01/01 13:08:51;;;;;;;18.40;10.57;;;307.30;1689.60;;;;;;5053493;28;20047;-74
2021/01/01 13:11:17;;;;;;;24.15;14.23;;;307.30;1689.60;;;;;;5068010;28;20490;-73